International Virtual Aviation Organisation

Russian Federation and Kazakhstan MCD

 

Карточка аэропорта ULAA

Внимание!
Информация на этой странице в стадии наполнения.
Если вы не увидели какой-то информации, или заметили неточность - пожалуйста сообщите нам!
Спасибо!
Команда RU-STAFF
Название аэропортаТалаги
Название аэропорта (англ.)Talagi
Превышение62 ft. (18.9 m.)
Координаты64°36.018', 40°43.002'
Высота перехода800m
Эшелон переходаQFE>=760mm:FL040; QFE<760=>733:FL050; QFE<733:FL060
Коды ответчика3120-3127
Зона ОрВДАрхангельск РПИ (ULAA)
Данные METARULAA 241330Z 27006MPS 230V310 9999 OVC020 00/M03 Q0980 R26/920555 NOSIG RMK QFE734/0978
Проноз погоды (TAF)ULAA 241100Z 2412/2512 22003MPS 6000 BKN013CB TEMPO 2412/2418 26003G10MPS 0900 +SHSN BKN006 BKN011CB TEMPO 2418/2424 26003G10MPS 5000 -SHSN BR BKN015CB TEMPO 2500/2506 18003MPS 2100 -SHSN BR FEW004 BKN012CB TEMPO 2506/2512 18003G08MPS
NOTAMshow/hide NOTAM
AWOS   TABLE

Информация о ВПП


Диспетчерские позиции

Позывной Наименование органа УВД Частота
ULAA_TWRАрхангельск-Вышка121.8
ULAA_APPАрхангельск-Подход122.0



Спутниковое изображение